Time;durP1;ratioP1;P1;durP2;ratioP2;P2;SDS_P1;SDS_P2;PMS_P1;PMS_P2;Temp;Humidity;BMP_temperature;BMP_pressure;BME280_temperature;BME280_humidity;BME280_pressure;Samples;Min_cycle;Max_cycle;Signal;HPM_P1;HPM_P2
2021/01/30 00:00:52;;;;;;;;;;;21.90;33.50;;;;;;467816;253;1253;-68
2021/01/30 00:02:54;;;;;;;;;;;21.90;33.50;;;;;;467843;254;1230;-68
2021/01/30 00:04:55;;;;;;;;;;;22.00;33.50;;;;;;467826;253;1423;-68
2021/01/30 00:06:56;;;;;;;;;;;22.00;33.50;;;;;;467861;253;1229;-68
2021/01/30 00:08:58;;;;;;;;;;;22.00;33.40;;;;;;467836;253;1353;-68
2021/01/30 00:10:59;;;;;;;;;;;22.00;33.50;;;;;;467854;253;2173;-68
2021/01/30 00:13:00;;;;;;;;;;;22.00;33.40;;;;;;467858;253;1212;-67
2021/01/30 00:15:01;;;;;;;;;;;22.00;33.50;;;;;;467826;253;1357;-68
2021/01/30 00:17:03;;;;;;;;;;;22.10;33.50;;;;;;467848;253;1233;-68
2021/01/30 00:19:04;;;;;;;;;;;22.00;33.50;;;;;;467832;254;2188;-67
2021/01/30 00:21:05;;;;;;;;;;;22.00;33.60;;;;;;467888;253;1382;-67
2021/01/30 00:23:06;;;;;;;;;;;22.00;33.70;;;;;;467834;254;1350;-68
2021/01/30 00:25:08;;;;;;;;;;;22.00;33.70;;;;;;467828;253;1260;-68
2021/01/30 00:27:09;;;;;;;;;;;22.00;33.90;;;;;;467754;253;1245;-68
2021/01/30 00:29:10;;;;;;;;;;;22.00;33.90;;;;;;467800;253;1153;-68
2021/01/30 00:31:12;;;;;;;;;;;21.90;33.90;;;;;;467869;251;1363;-68
2021/01/30 00:33:13;;;;;;;;;;;21.90;34.00;;;;;;467801;253;1279;-68
2021/01/30 00:35:14;;;;;;;;;;;22.00;34.00;;;;;;467898;253;1269;-67
2021/01/30 00:37:15;;;;;;;;;;;22.00;34.10;;;;;;467760;254;1433;-68
2021/01/30 00:39:17;;;;;;;;;;;22.00;34.10;;;;;;467809;253;2196;-67
2021/01/30 00:41:18;;;;;;;;;;;22.00;34.00;;;;;;467810;253;1225;-68
2021/01/30 00:43:19;;;;;;;;;;;22.00;34.10;;;;;;467871;253;1234;-67
2021/01/30 00:45:20;;;;;;;;;;;21.90;34.10;;;;;;467874;253;1356;-67
2021/01/30 00:47:22;;;;;;;;;;;22.00;34.10;;;;;;467835;254;1260;-68
2021/01/30 00:49:23;;;;;;;;;;;22.00;34.20;;;;;;467822;253;1319;-68
2021/01/30 00:51:24;;;;;;;;;;;22.00;34.20;;;;;;467836;254;2086;-67
2021/01/30 00:53:26;;;;;;;;;;;21.90;34.20;;;;;;467784;254;1353;-67
2021/01/30 00:55:27;;;;;;;;;;;21.90;34.20;;;;;;467807;253;1250;-68
2021/01/30 00:57:28;;;;;;;;;;;21.90;34.30;;;;;;467785;254;2200;-68
2021/01/30 00:59:29;;;;;;;;;;;21.90;34.30;;;;;;467856;253;1244;-68
2021/01/30 01:01:31;;;;;;;;;;;21.90;34.30;;;;;;467835;253;1263;-68
2021/01/30 01:03:32;;;;;;;;;;;21.90;34.30;;;;;;467833;253;1258;-68
2021/01/30 01:05:33;;;;;;;;;;;21.90;34.30;;;;;;467802;254;1496;-68
2021/01/30 01:07:35;;;;;;;;;;;21.90;34.30;;;;;;467862;253;1758;-68
2021/01/30 01:09:36;;;;;;;;;;;21.90;34.40;;;;;;467788;254;1379;-68
2021/01/30 01:11:37;;;;;;;;;;;21.90;34.40;;;;;;467813;253;1285;-68
2021/01/30 01:13:38;;;;;;;;;;;21.90;34.40;;;;;;467855;254;1289;-68
2021/01/30 01:15:40;;;;;;;;;;;21.90;34.40;;;;;;467827;253;1410;-68
2021/01/30 01:17:41;;;;;;;;;;;21.90;34.40;;;;;;467838;254;2208;-68
2021/01/30 01:19:42;;;;;;;;;;;21.90;34.40;;;;;;467823;253;1368;-68
2021/01/30 01:21:43;;;;;;;;;;;21.90;34.40;;;;;;467788;254;1252;-68
2021/01/30 01:23:45;;;;;;;;;;;21.90;34.40;;;;;;467753;254;1253;-68
2021/01/30 01:25:46;;;;;;;;;;;21.90;34.40;;;;;;467902;251;1343;-68
2021/01/30 01:27:47;;;;;;;;;;;21.90;34.40;;;;;;467865;254;1377;-68
2021/01/30 01:29:49;;;;;;;;;;;21.90;34.50;;;;;;467909;253;1267;-68
2021/01/30 01:31:51;;;;;;;;;;;21.90;34.60;;;;;;467802;253;1181;-67
2021/01/30 01:33:54;;;;;;;;;;;21.90;34.60;;;;;;467772;254;1273;-68
2021/01/30 01:35:55;;;;;;;;;;;21.90;34.60;;;;;;467855;253;1234;-68
2021/01/30 01:37:56;;;;;;;;;;;21.90;34.60;;;;;;467798;254;2208;-68
2021/01/30 01:39:58;;;;;;;;;;;21.90;34.70;;;;;;467871;253;1325;-68
2021/01/30 01:41:59;;;;;;;;;;;21.90;34.70;;;;;;467818;253;1240;-67
2021/01/30 01:44:00;;;;;;;;;;;21.90;34.70;;;;;;467887;253;1227;-68
2021/01/30 01:46:02;;;;;;;;;;;21.90;34.70;;;;;;467841;253;1295;-68
2021/01/30 01:48:03;;;;;;;;;;;21.90;34.70;;;;;;467954;253;1267;-68
2021/01/30 01:50:04;;;;;;;;;;;21.90;34.70;;;;;;467883;254;1196;-67
2021/01/30 01:52:05;;;;;;;;;;;21.90;34.70;;;;;;467899;254;1301;-68
2021/01/30 01:54:07;;;;;;;;;;;21.90;34.70;;;;;;467839;253;1379;-67
2021/01/30 01:56:08;;;;;;;;;;;22.00;34.70;;;;;;467793;253;1265;-68
2021/01/30 01:58:09;;;;;;;;;;;21.90;34.70;;;;;;467778;254;2196;-68
2021/01/30 02:00:10;;;;;;;;;;;22.00;34.70;;;;;;467856;253;1341;-67
2021/01/30 02:02:12;;;;;;;;;;;22.00;34.70;;;;;;467886;252;1355;-68
2021/01/30 02:04:13;;;;;;;;;;;22.00;34.60;;;;;;467876;254;1393;-68
2021/01/30 02:06:14;;;;;;;;;;;22.00;34.60;;;;;;467859;253;1223;-68
2021/01/30 02:08:15;;;;;;;;;;;22.00;34.60;;;;;;467858;253;1246;-68
2021/01/30 02:10:17;;;;;;;;;;;22.00;34.60;;;;;;467721;252;1289;-68
2021/01/30 02:12:18;;;;;;;;;;;22.00;34.60;;;;;;467770;253;1244;-68
2021/01/30 02:14:19;;;;;;;;;;;22.00;34.50;;;;;;467842;253;1388;-68
2021/01/30 02:16:21;;;;;;;;;;;22.00;34.40;;;;;;467744;253;1233;-68
2021/01/30 02:18:22;;;;;;;;;;;22.00;34.40;;;;;;467837;253;2161;-68
2021/01/30 02:20:23;;;;;;;;;;;22.00;34.30;;;;;;467831;252;1349;-68
2021/01/30 02:22:24;;;;;;;;;;;22.00;34.30;;;;;;467766;253;1436;-68
2021/01/30 02:24:26;;;;;;;;;;;22.00;34.30;;;;;;467810;254;1303;-68
2021/01/30 02:26:27;;;;;;;;;;;22.00;34.30;;;;;;467761;253;1376;-68
2021/01/30 02:28:28;;;;;;;;;;;22.00;34.20;;;;;;467870;254;1237;-68
2021/01/30 02:30:30;;;;;;;;;;;22.10;34.20;;;;;;467799;253;1437;-67
2021/01/30 02:32:31;;;;;;;;;;;22.10;34.20;;;;;;467793;254;1268;-68
2021/01/30 02:34:32;;;;;;;;;;;22.00;34.10;;;;;;467889;253;1253;-68
2021/01/30 02:36:33;;;;;;;;;;;22.00;34.10;;;;;;467759;253;1275;-67
2021/01/30 02:38:35;;;;;;;;;;;22.00;34.20;;;;;;467864;254;2165;-67
2021/01/30 02:40:36;;;;;;;;;;;22.00;34.20;;;;;;467908;253;1233;-68
2021/01/30 02:42:42;;;;;;;;;;;22.00;34.30;;;;;;467838;253;1272;-67
2021/01/30 02:44:39;;;;;;;;;;;22.00;34.30;;;;;;467614;255;2286;-68
2021/01/30 02:46:40;;;;;;;;;;;22.00;34.40;;;;;;467846;254;1257;-68
2021/01/30 02:48:42;;;;;;;;;;;22.00;34.40;;;;;;467818;254;1324;-68
2021/01/30 02:50:45;;;;;;;;;;;22.00;34.40;;;;;;467799;253;1362;-68
2021/01/30 02:52:46;;;;;;;;;;;22.00;34.40;;;;;;467851;254;1396;-67
2021/01/30 02:54:48;;;;;;;;;;;22.00;34.40;;;;;;467912;253;1340;-68
2021/01/30 02:56:49;;;;;;;;;;;22.00;34.50;;;;;;467850;254;1396;-68
2021/01/30 02:58:50;;;;;;;;;;;22.00;34.50;;;;;;467884;253;2212;-68
2021/01/30 03:00:51;;;;;;;;;;;22.00;34.50;;;;;;467814;254;1344;-68
2021/01/30 03:02:53;;;;;;;;;;;22.00;34.50;;;;;;467862;253;1292;-68
2021/01/30 03:04:54;;;;;;;;;;;21.90;34.50;;;;;;467861;254;1340;-68
2021/01/30 03:06:55;;;;;;;;;;;21.90;34.50;;;;;;467869;253;1297;-68
2021/01/30 03:08:56;;;;;;;;;;;21.90;34.60;;;;;;467859;253;1244;-67
2021/01/30 03:10:58;;;;;;;;;;;22.00;34.50;;;;;;467854;254;1270;-68
2021/01/30 03:12:59;;;;;;;;;;;21.90;34.50;;;;;;467834;253;1254;-68
2021/01/30 03:15:00;;;;;;;;;;;21.90;34.40;;;;;;467885;254;1370;-68
2021/01/30 03:17:02;;;;;;;;;;;21.90;34.40;;;;;;467808;254;1294;-68
2021/01/30 03:19:03;;;;;;;;;;;21.90;34.40;;;;;;467856;253;2161;-68
2021/01/30 03:21:04;;;;;;;;;;;21.90;34.30;;;;;;467795;253;1393;-67
2021/01/30 03:23:05;;;;;;;;;;;21.90;34.30;;;;;;467869;253;1272;-68
2021/01/30 03:25:07;;;;;;;;;;;21.90;34.30;;;;;;467844;254;1306;-68
2021/01/30 03:27:08;;;;;;;;;;;21.90;34.20;;;;;;467806;254;1348;-68
2021/01/30 03:29:09;;;;;;;;;;;21.90;34.20;;;;;;467904;253;1344;-68
2021/01/30 03:31:10;;;;;;;;;;;21.90;34.20;;;;;;467868;253;1240;-68
2021/01/30 03:33:12;;;;;;;;;;;22.00;34.20;;;;;;467916;253;1290;-67
2021/01/30 03:35:13;;;;;;;;;;;22.00;34.10;;;;;;467868;254;1374;-68
2021/01/30 03:37:14;;;;;;;;;;;22.00;34.10;;;;;;467840;253;1236;-68
2021/01/30 03:39:16;;;;;;;;;;;22.00;34.10;;;;;;467808;254;2145;-68
2021/01/30 03:41:17;;;;;;;;;;;22.00;34.00;;;;;;467808;253;1234;-68
2021/01/30 03:43:18;;;;;;;;;;;22.00;34.00;;;;;;467857;254;1357;-67
2021/01/30 03:45:19;;;;;;;;;;;22.00;34.10;;;;;;467887;253;1262;-68
2021/01/30 03:47:21;;;;;;;;;;;22.00;34.10;;;;;;467884;254;1423;-67
2021/01/30 03:49:22;;;;;;;;;;;22.00;34.10;;;;;;467797;254;1353;-68
2021/01/30 03:51:23;;;;;;;;;;;22.00;34.00;;;;;;467780;254;1212;-67
2021/01/30 03:53:24;;;;;;;;;;;21.90;34.10;;;;;;467865;253;1268;-68
2021/01/30 03:55:26;;;;;;;;;;;22.00;34.10;;;;;;467872;253;1361;-68
2021/01/30 03:57:27;;;;;;;;;;;22.00;34.10;;;;;;467883;253;1262;-68
2021/01/30 03:59:28;;;;;;;;;;;22.00;34.10;;;;;;467864;254;2205;-67
2021/01/30 04:01:30;;;;;;;;;;;22.00;34.10;;;;;;467957;253;1260;-68
2021/01/30 04:03:31;;;;;;;;;;;22.00;34.10;;;;;;467834;253;1185;-68
2021/01/30 04:05:32;;;;;;;;;;;22.00;34.10;;;;;;467856;253;1272;-68
2021/01/30 04:07:33;;;;;;;;;;;22.00;34.10;;;;;;467752;254;1291;-68
2021/01/30 04:09:35;;;;;;;;;;;22.00;34.20;;;;;;467803;253;1368;-68
2021/01/30 04:11:36;;;;;;;;;;;22.00;34.20;;;;;;467807;254;1264;-67
2021/01/30 04:13:37;;;;;;;;;;;21.90;34.20;;;;;;467861;254;1249;-68
2021/01/30 04:15:38;;;;;;;;;;;21.90;34.20;;;;;;467777;254;1339;-68
2021/01/30 04:17:40;;;;;;;;;;;21.90;34.20;;;;;;467733;253;1419;-68
2021/01/30 04:19:41;;;;;;;;;;;22.00;34.20;;;;;;467792;254;2183;-68
2021/01/30 04:21:42;;;;;;;;;;;22.00;34.20;;;;;;467859;253;1218;-68
2021/01/30 04:23:44;;;;;;;;;;;22.00;34.20;;;;;;467795;254;1381;-67
2021/01/30 04:25:45;;;;;;;;;;;22.00;34.20;;;;;;467750;254;1484;-68
2021/01/30 04:27:46;;;;;;;;;;;22.00;34.30;;;;;;467803;253;1338;-68
2021/01/30 04:29:47;;;;;;;;;;;21.90;34.30;;;;;;467816;254;1404;-67
2021/01/30 04:31:49;;;;;;;;;;;21.90;34.30;;;;;;467806;253;1226;-68
2021/01/30 04:33:50;;;;;;;;;;;22.00;34.30;;;;;;467897;253;1360;-67
2021/01/30 04:35:51;;;;;;;;;;;21.90;34.30;;;;;;467819;254;1339;-68
2021/01/30 04:37:53;;;;;;;;;;;22.00;34.30;;;;;;467821;253;1254;-68
2021/01/30 04:39:54;;;;;;;;;;;22.00;34.30;;;;;;467766;254;2199;-68
2021/01/30 04:41:56;;;;;;;;;;;21.90;34.20;;;;;;467774;253;1254;-68
2021/01/30 04:43:57;;;;;;;;;;;22.00;34.20;;;;;;467837;254;1243;-68
2021/01/30 04:45:58;;;;;;;;;;;21.90;34.20;;;;;;467791;253;1338;-67
2021/01/30 04:47:59;;;;;;;;;;;21.90;34.20;;;;;;467788;254;1257;-68
2021/01/30 04:50:01;;;;;;;;;;;22.00;34.10;;;;;;467834;253;1359;-67
2021/01/30 04:52:02;;;;;;;;;;;21.90;34.10;;;;;;467831;254;1293;-68
2021/01/30 04:54:03;;;;;;;;;;;21.90;34.10;;;;;;467866;253;1425;-68
2021/01/30 04:56:04;;;;;;;;;;;21.90;34.10;;;;;;467798;253;1293;-67
2021/01/30 04:58:06;;;;;;;;;;;21.90;34.10;;;;;;467768;250;1238;-67
2021/01/30 05:00:07;;;;;;;;;;;21.90;34.00;;;;;;467796;249;2141;-68
2021/01/30 05:02:08;;;;;;;;;;;21.90;34.00;;;;;;467854;250;1270;-68
2021/01/30 05:04:10;;;;;;;;;;;22.00;34.00;;;;;;467894;253;1272;-68
2021/01/30 05:06:11;;;;;;;;;;;22.00;34.00;;;;;;467795;253;1403;-68
2021/01/30 05:08:12;;;;;;;;;;;21.90;33.80;;;;;;467856;253;1261;-68
2021/01/30 05:10:13;;;;;;;;;;;22.00;33.80;;;;;;467824;253;1410;-68
2021/01/30 05:12:15;;;;;;;;;;;22.00;33.80;;;;;;467770;254;1285;-67
2021/01/30 05:14:16;;;;;;;;;;;22.00;33.70;;;;;;467807;253;1353;-67
2021/01/30 05:16:17;;;;;;;;;;;22.00;33.70;;;;;;467713;252;1301;-68
2021/01/30 05:18:19;;;;;;;;;;;22.00;33.60;;;;;;467813;253;1228;-67
2021/01/30 05:20:20;;;;;;;;;;;22.00;33.50;;;;;;467819;253;2153;-68
2021/01/30 05:22:22;;;;;;;;;;;22.00;33.50;;;;;;467796;251;1280;-67
2021/01/30 05:24:23;;;;;;;;;;;22.00;33.50;;;;;;467743;253;1358;-67
2021/01/30 05:26:24;;;;;;;;;;;22.00;33.50;;;;;;467764;253;1274;-68
2021/01/30 05:28:25;;;;;;;;;;;22.00;33.40;;;;;;467838;253;1367;-67
2021/01/30 05:30:27;;;;;;;;;;;22.00;33.50;;;;;;467783;253;1357;-68
2021/01/30 05:32:28;;;;;;;;;;;22.00;33.50;;;;;;467859;253;1234;-69
2021/01/30 05:34:29;;;;;;;;;;;22.00;33.50;;;;;;467890;253;1271;-67
2021/01/30 05:36:30;;;;;;;;;;;22.00;33.50;;;;;;467735;254;1277;-68
2021/01/30 05:38:32;;;;;;;;;;;22.00;33.40;;;;;;467827;253;1257;-67
2021/01/30 05:40:33;;;;;;;;;;;22.00;33.40;;;;;;467777;251;2196;-68
2021/01/30 05:42:34;;;;;;;;;;;22.00;33.40;;;;;;467781;253;1342;-68
2021/01/30 05:44:36;;;;;;;;;;;22.00;33.40;;;;;;467820;253;1394;-68
2021/01/30 05:46:37;;;;;;;;;;;22.00;33.40;;;;;;467828;253;1303;-68
2021/01/30 05:48:38;;;;;;;;;;;22.00;33.40;;;;;;467806;254;1251;-68
2021/01/30 05:50:39;;;;;;;;;;;22.00;33.30;;;;;;467740;251;1274;-67
2021/01/30 05:52:41;;;;;;;;;;;22.00;33.40;;;;;;467758;253;1238;-68
2021/01/30 05:54:42;;;;;;;;;;;22.00;33.40;;;;;;467789;254;1385;-68
2021/01/30 05:56:44;;;;;;;;;;;22.00;33.30;;;;;;467725;253;1265;-67
2021/01/30 05:58:45;;;;;;;;;;;22.00;33.30;;;;;;467838;253;1273;-67
2021/01/30 06:00:46;;;;;;;;;;;22.00;33.20;;;;;;467753;251;2189;-68
2021/01/30 06:02:47;;;;;;;;;;;22.00;33.20;;;;;;467824;254;1352;-68
2021/01/30 06:04:49;;;;;;;;;;;22.00;33.20;;;;;;467848;254;1276;-68
2021/01/30 06:06:50;;;;;;;;;;;22.00;33.20;;;;;;467761;251;1279;-67
2021/01/30 06:08:51;;;;;;;;;;;22.00;33.10;;;;;;467820;254;1304;-68
2021/01/30 06:10:53;;;;;;;;;;;22.00;33.20;;;;;;467858;254;1439;-68
2021/01/30 06:12:54;;;;;;;;;;;22.00;33.10;;;;;;467778;253;1250;-68
2021/01/30 06:14:55;;;;;;;;;;;22.00;33.10;;;;;;467861;253;1376;-67
2021/01/30 06:17:00;;;;;;;;;;;22.00;33.10;;;;;;467809;253;1216;-67
2021/01/30 06:19:01;;;;;;;;;;;22.00;33.00;;;;;;467822;253;1315;-68
2021/01/30 06:21:02;;;;;;;;;;;22.00;33.00;;;;;;467810;253;2200;-68
2021/01/30 06:23:03;;;;;;;;;;;22.00;33.00;;;;;;467860;254;1219;-67
2021/01/30 06:25:05;;;;;;;;;;;22.00;33.00;;;;;;467877;254;1380;-67
2021/01/30 06:27:06;;;;;;;;;;;22.00;33.00;;;;;;467851;253;1276;-68
2021/01/30 06:29:07;;;;;;;;;;;22.00;33.00;;;;;;467809;254;1260;-67
2021/01/30 06:31:08;;;;;;;;;;;22.00;33.10;;;;;;467885;253;1315;-67
2021/01/30 06:33:10;;;;;;;;;;;21.90;33.10;;;;;;467817;253;1323;-68
2021/01/30 06:35:11;;;;;;;;;;;22.00;33.10;;;;;;467813;254;1364;-68
2021/01/30 06:37:12;;;;;;;;;;;21.90;33.10;;;;;;467850;254;1254;-67
2021/01/30 06:39:14;;;;;;;;;;;21.90;33.10;;;;;;467887;253;1274;-68
2021/01/30 06:41:15;;;;;;;;;;;21.90;33.10;;;;;;467830;253;2184;-67
2021/01/30 06:43:16;;;;;;;;;;;21.90;33.10;;;;;;467867;254;1161;-67
2021/01/30 06:45:17;;;;;;;;;;;21.90;33.10;;;;;;467852;253;1200;-68
2021/01/30 06:47:19;;;;;;;;;;;21.90;33.10;;;;;;467858;253;1248;-67
2021/01/30 06:49:20;;;;;;;;;;;21.90;33.20;;;;;;467878;253;1330;-68
2021/01/30 06:51:21;;;;;;;;;;;21.90;33.20;;;;;;467742;253;1313;-67
2021/01/30 06:53:22;;;;;;;;;;;21.90;33.20;;;;;;467861;253;1262;-68
2021/01/30 06:55:24;;;;;;;;;;;21.90;33.20;;;;;;467827;253;1375;-67
2021/01/30 06:57:25;;;;;;;;;;;21.90;33.20;;;;;;467879;253;1415;-68
2021/01/30 06:59:26;;;;;;;;;;;21.90;33.20;;;;;;467839;254;2196;-68
2021/01/30 07:01:28;;;;;;;;;;;21.90;33.20;;;;;;467870;253;1292;-68
2021/01/30 07:03:29;;;;;;;;;;;21.90;33.20;;;;;;467819;254;1365;-67
2021/01/30 07:05:30;;;;;;;;;;;21.90;33.30;;;;;;467823;253;1386;-68
2021/01/30 07:07:32;;;;;;;;;;;21.90;33.30;;;;;;467829;253;1180;-68
2021/01/30 07:09:33;;;;;;;;;;;21.90;33.30;;;;;;467825;253;1321;-68
2021/01/30 07:11:34;;;;;;;;;;;21.90;33.20;;;;;;467831;253;1298;-68
2021/01/30 07:13:35;;;;;;;;;;;22.00;33.30;;;;;;467807;254;1270;-67
2021/01/30 07:15:37;;;;;;;;;;;22.00;33.30;;;;;;467868;253;1333;-68
2021/01/30 07:17:38;;;;;;;;;;;22.00;33.20;;;;;;467827;253;1384;-68
2021/01/30 07:19:39;;;;;;;;;;;22.00;33.20;;;;;;467804;253;2210;-67
2021/01/30 07:21:41;;;;;;;;;;;22.00;33.20;;;;;;467827;254;1239;-67
2021/01/30 07:23:43;;;;;;;;;;;22.00;33.10;;;;;;467855;253;1248;-67
2021/01/30 07:25:43;;;;;;;;;;;22.00;33.10;;;;;;467733;255;2418;-68
2021/01/30 07:27:45;;;;;;;;;;;22.00;33.10;;;;;;467785;254;1203;-68
2021/01/30 07:29:46;;;;;;;;;;;22.00;33.10;;;;;;467825;252;1367;-67
2021/01/30 07:31:47;;;;;;;;;;;22.00;33.00;;;;;;467857;254;1252;-68
2021/01/30 07:33:49;;;;;;;;;;;22.00;33.00;;;;;;467840;253;1245;-67
2021/01/30 07:35:50;;;;;;;;;;;22.00;33.00;;;;;;467828;253;1257;-68
2021/01/30 07:37:51;;;;;;;;;;;22.00;32.90;;;;;;467779;254;1210;-68
2021/01/30 07:39:53;;;;;;;;;;;22.00;32.90;;;;;;467864;253;2201;-68
2021/01/30 07:41:54;;;;;;;;;;;22.00;32.90;;;;;;467768;254;1258;-68
2021/01/30 07:43:55;;;;;;;;;;;22.00;32.80;;;;;;467804;253;1403;-68
2021/01/30 07:45:57;;;;;;;;;;;22.00;32.80;;;;;;467786;254;1421;-68
2021/01/30 07:47:58;;;;;;;;;;;22.00;32.80;;;;;;467828;253;1243;-68
2021/01/30 07:49:59;;;;;;;;;;;22.00;32.70;;;;;;467791;253;1349;-68
2021/01/30 07:52:01;;;;;;;;;;;22.00;32.70;;;;;;467860;254;1289;-67
2021/01/30 07:54:02;;;;;;;;;;;22.00;32.80;;;;;;467897;253;1280;-68
2021/01/30 07:56:04;;;;;;;;;;;22.00;32.80;;;;;;467857;253;1315;-68
2021/01/30 07:58:05;;;;;;;;;;;22.00;32.80;;;;;;467784;254;1253;-68
2021/01/30 08:00:06;;;;;;;;;;;22.00;32.80;;;;;;467798;253;2184;-68
2021/01/30 08:02:07;;;;;;;;;;;22.00;32.80;;;;;;467764;253;1361;-68
2021/01/30 08:04:09;;;;;;;;;;;22.00;32.80;;;;;;467833;253;1280;-68
2021/01/30 08:06:10;;;;;;;;;;;22.00;32.80;;;;;;467822;254;1357;-68
2021/01/30 08:08:11;;;;;;;;;;;22.00;32.90;;;;;;467825;253;1516;-68
2021/01/30 08:10:13;;;;;;;;;;;22.00;32.90;;;;;;467806;254;1443;-67
2021/01/30 08:12:14;;;;;;;;;;;22.00;32.90;;;;;;467832;252;1268;-68
2021/01/30 08:14:15;;;;;;;;;;;22.00;32.90;;;;;;467799;253;1250;-68
2021/01/30 08:16:16;;;;;;;;;;;22.00;32.90;;;;;;467752;253;1260;-67
2021/01/30 08:18:18;;;;;;;;;;;22.00;32.90;;;;;;467783;254;1251;-68
2021/01/30 08:20:19;;;;;;;;;;;22.00;32.90;;;;;;467846;253;2192;-67
2021/01/30 08:22:20;;;;;;;;;;;22.00;32.90;;;;;;467826;253;1241;-68
2021/01/30 08:24:21;;;;;;;;;;;22.00;33.00;;;;;;467897;253;1282;-68
2021/01/30 08:26:23;;;;;;;;;;;22.00;33.00;;;;;;467886;253;1291;-67
2021/01/30 08:28:24;;;;;;;;;;;22.00;33.00;;;;;;467818;254;1303;-67
2021/01/30 08:30:25;;;;;;;;;;;22.00;33.10;;;;;;467876;253;1477;-68
2021/01/30 08:32:27;;;;;;;;;;;22.00;33.00;;;;;;467815;253;1245;-67
2021/01/30 08:34:28;;;;;;;;;;;22.00;33.00;;;;;;467871;254;1244;-67
2021/01/30 08:36:29;;;;;;;;;;;22.00;33.00;;;;;;467837;253;1287;-67
2021/01/30 08:38:30;;;;;;;;;;;22.00;33.00;;;;;;467850;253;1406;-68
2021/01/30 08:40:32;;;;;;;;;;;21.90;32.90;;;;;;467803;253;2149;-67
2021/01/30 08:42:33;;;;;;;;;;;21.90;33.00;;;;;;467879;254;1266;-67
2021/01/30 08:44:34;;;;;;;;;;;21.90;33.00;;;;;;467804;253;1294;-67
2021/01/30 08:46:37;;;;;;;;;;;21.90;33.00;;;;;;467809;254;1230;-68
2021/01/30 08:48:37;;;;;;;;;;;21.90;32.90;;;;;;467753;255;2137;-68
2021/01/30 08:50:38;;;;;;;;;;;21.90;33.00;;;;;;467838;253;1468;-67
2021/01/30 08:52:39;;;;;;;;;;;21.90;33.00;;;;;;467852;254;1380;-67
2021/01/30 08:54:41;;;;;;;;;;;21.90;32.90;;;;;;467904;253;1327;-67
2021/01/30 08:56:42;;;;;;;;;;;21.90;33.00;;;;;;467817;254;1253;-67
2021/01/30 08:58:43;;;;;;;;;;;21.90;32.90;;;;;;467824;253;1269;-67
2021/01/30 09:00:44;;;;;;;;;;;21.90;33.00;;;;;;467762;253;2200;-68
2021/01/30 09:02:46;;;;;;;;;;;21.90;33.00;;;;;;467762;253;1244;-67
2021/01/30 09:04:47;;;;;;;;;;;21.80;33.00;;;;;;467818;254;1332;-68
2021/01/30 09:06:51;;;;;;;;;;;21.80;33.10;;;;;;467846;253;1214;-68
2021/01/30 09:08:50;;;;;;;;;;;21.80;33.10;;;;;;467708;255;2092;-68
2021/01/30 09:10:51;;;;;;;;;;;21.90;33.10;;;;;;467757;253;1267;-68
2021/01/30 09:12:54;;;;;;;;;;;21.80;33.10;;;;;;467811;254;1232;-68
2021/01/30 09:14:54;;;;;;;;;;;21.90;33.10;;;;;;467760;254;2194;-67
2021/01/30 09:16:55;;;;;;;;;;;21.80;33.20;;;;;;467781;253;1285;-67
2021/01/30 09:18:56;;;;;;;;;;;21.80;33.10;;;;;;467873;253;1248;-68
2021/01/30 09:20:58;;;;;;;;;;;21.80;33.20;;;;;;467843;253;2208;-68
2021/01/30 09:22:59;;;;;;;;;;;21.80;33.20;;;;;;467840;254;1173;-68
2021/01/30 09:25:01;;;;;;;;;;;21.80;33.20;;;;;;467805;253;1338;-68
2021/01/30 09:27:02;;;;;;;;;;;21.80;33.20;;;;;;467750;254;1403;-68
2021/01/30 09:29:03;;;;;;;;;;;21.80;33.20;;;;;;467815;253;1343;-68
2021/01/30 09:31:05;;;;;;;;;;;21.80;33.20;;;;;;467810;253;1277;-68
2021/01/30 09:33:06;;;;;;;;;;;21.90;33.20;;;;;;467904;253;1280;-68
2021/01/30 09:35:07;;;;;;;;;;;21.80;33.20;;;;;;467810;254;1384;-67
2021/01/30 09:37:08;;;;;;;;;;;21.80;33.20;;;;;;467886;253;1255;-67
2021/01/30 09:39:10;;;;;;;;;;;21.80;33.20;;;;;;467854;253;1272;-67
2021/01/30 09:41:11;;;;;;;;;;;21.80;33.10;;;;;;467847;254;2201;-67
2021/01/30 09:43:12;;;;;;;;;;;21.80;33.10;;;;;;467917;253;1232;-67
2021/01/30 09:45:15;;;;;;;;;;;21.80;33.10;;;;;;467861;253;1393;-68
2021/01/30 09:47:15;;;;;;;;;;;21.80;33.10;;;;;;467809;254;2217;-68
2021/01/30 09:49:16;;;;;;;;;;;21.80;33.10;;;;;;467848;253;1287;-68
2021/01/30 09:51:17;;;;;;;;;;;21.80;33.10;;;;;;467846;253;1276;-68
2021/01/30 09:53:19;;;;;;;;;;;21.80;33.10;;;;;;467784;253;1236;-68
2021/01/30 09:55:21;;;;;;;;;;;21.80;33.10;;;;;;467891;253;1371;-68
2021/01/30 09:57:22;;;;;;;;;;;21.80;33.10;;;;;;467797;253;1232;-68
2021/01/30 09:59:23;;;;;;;;;;;21.80;33.10;;;;;;467784;253;1316;-67
2021/01/30 10:01:25;;;;;;;;;;;21.80;33.10;;;;;;467880;254;2208;-68
2021/01/30 10:03:26;;;;;;;;;;;21.80;33.00;;;;;;467811;254;1424;-67
2021/01/30 10:05:28;;;;;;;;;;;21.90;33.00;;;;;;467873;254;1364;-67
2021/01/30 10:07:29;;;;;;;;;;;21.80;33.00;;;;;;467846;253;1262;-68
2021/01/30 10:09:30;;;;;;;;;;;21.90;33.00;;;;;;467860;254;1263;-68
2021/01/30 10:11:31;;;;;;;;;;;21.90;33.00;;;;;;467844;253;1330;-68
2021/01/30 10:13:33;;;;;;;;;;;21.90;33.00;;;;;;467862;253;1266;-68
2021/01/30 10:15:34;;;;;;;;;;;21.90;33.00;;;;;;467848;253;1498;-68
2021/01/30 10:17:35;;;;;;;;;;;21.90;33.00;;;;;;467834;253;1232;-67
2021/01/30 10:19:36;;;;;;;;;;;21.90;33.00;;;;;;467800;253;1254;-68
2021/01/30 10:21:38;;;;;;;;;;;21.90;33.00;;;;;;467774;253;2192;-67
2021/01/30 10:23:39;;;;;;;;;;;21.80;33.10;;;;;;467808;254;1261;-68
2021/01/30 10:25:40;;;;;;;;;;;21.80;33.10;;;;;;467807;253;1324;-68
2021/01/30 10:27:42;;;;;;;;;;;21.70;33.20;;;;;;467801;254;1310;-68
2021/01/30 10:29:43;;;;;;;;;;;21.60;33.30;;;;;;467844;253;1246;-68
2021/01/30 10:31:44;;;;;;;;;;;21.60;33.50;;;;;;467748;253;1490;-68
2021/01/30 10:33:45;;;;;;;;;;;21.50;33.60;;;;;;467788;254;1279;-68
2021/01/30 10:35:47;;;;;;;;;;;21.40;33.60;;;;;;467761;253;1230;-68
2021/01/30 10:37:48;;;;;;;;;;;21.30;33.80;;;;;;467801;254;1272;-68
2021/01/30 10:39:49;;;;;;;;;;;21.20;33.90;;;;;;467828;254;1218;-68
2021/01/30 10:41:51;;;;;;;;;;;21.10;34.20;;;;;;467763;253;2149;-68
2021/01/30 10:43:52;;;;;;;;;;;21.00;34.30;;;;;;467842;254;1359;-68
2021/01/30 10:45:53;;;;;;;;;;;21.00;34.40;;;;;;467770;253;1388;-67
2021/01/30 10:47:54;;;;;;;;;;;21.00;34.50;;;;;;467826;254;1224;-67
2021/01/30 10:49:56;;;;;;;;;;;20.90;34.60;;;;;;467803;253;1313;-67
2021/01/30 10:51:57;;;;;;;;;;;20.80;34.60;;;;;;467753;253;1240;-68
2021/01/30 10:53:58;;;;;;;;;;;20.70;34.70;;;;;;467808;254;1268;-67
2021/01/30 10:55:59;;;;;;;;;;;20.70;34.70;;;;;;467845;253;1370;-67
2021/01/30 10:58:01;;;;;;;;;;;20.70;34.80;;;;;;467877;252;1261;-67
2021/01/30 11:00:02;;;;;;;;;;;20.70;34.80;;;;;;467889;253;1320;-68
2021/01/30 11:02:03;;;;;;;;;;;20.70;34.80;;;;;;467852;253;2180;-68
2021/01/30 11:04:05;;;;;;;;;;;20.60;34.80;;;;;;467830;253;1250;-67
2021/01/30 11:06:06;;;;;;;;;;;20.50;34.90;;;;;;467800;253;1385;-68
2021/01/30 11:08:07;;;;;;;;;;;20.50;34.90;;;;;;467834;254;1276;-67
2021/01/30 11:10:09;;;;;;;;;;;20.60;34.90;;;;;;467777;253;1300;-68
2021/01/30 11:12:10;;;;;;;;;;;20.50;35.00;;;;;;467835;254;1337;-68
2021/01/30 11:14:11;;;;;;;;;;;20.40;35.00;;;;;;467828;254;1199;-68
2021/01/30 11:16:12;;;;;;;;;;;20.40;35.20;;;;;;467825;253;1366;-67
2021/01/30 11:18:14;;;;;;;;;;;20.30;35.10;;;;;;467846;253;1440;-67
2021/01/30 11:20:15;;;;;;;;;;;20.20;35.20;;;;;;467825;250;1622;-68
2021/01/30 11:22:17;;;;;;;;;;;20.20;35.30;;;;;;467819;253;2204;-68
2021/01/30 11:24:18;;;;;;;;;;;20.20;35.30;;;;;;467722;255;2183;-67
2021/01/30 11:26:24;;;;;;;;;;;20.10;35.30;;;;;;467810;253;1387;-68
2021/01/30 11:28:21;;;;;;;;;;;20.10;35.30;;;;;;467575;255;2333;-68
2021/01/30 11:30:22;;;;;;;;;;;20.10;35.30;;;;;;467792;254;1261;-68
2021/01/30 11:32:23;;;;;;;;;;;20.00;35.40;;;;;;467831;253;1234;-68
2021/01/30 11:34:25;;;;;;;;;;;20.00;35.30;;;;;;467757;253;1198;-67
2021/01/30 11:36:26;;;;;;;;;;;20.00;35.40;;;;;;467723;254;1441;-68
2021/01/30 11:38:27;;;;;;;;;;;19.90;35.30;;;;;;467829;254;1272;-67
2021/01/30 11:40:29;;;;;;;;;;;19.90;35.40;;;;;;467850;253;1392;-67
2021/01/30 11:42:30;;;;;;;;;;;19.90;35.40;;;;;;467900;253;2133;-68
2021/01/30 11:44:31;;;;;;;;;;;19.90;35.40;;;;;;467822;254;1227;-67
2021/01/30 11:46:32;;;;;;;;;;;19.90;35.40;;;;;;467792;254;1189;-68
2021/01/30 11:48:34;;;;;;;;;;;19.90;35.50;;;;;;467801;254;1325;-67
2021/01/30 11:50:35;;;;;;;;;;;19.90;35.50;;;;;;467792;253;1387;-67
2021/01/30 11:52:36;;;;;;;;;;;19.90;35.50;;;;;;467858;254;1330;-68
2021/01/30 11:54:37;;;;;;;;;;;19.80;35.50;;;;;;467883;253;1334;-67
2021/01/30 11:56:39;;;;;;;;;;;19.80;35.50;;;;;;467797;253;1387;-68